createdAt,value
2019-03-26T00:01:58.125Z,5.41
2019-03-26T00:04:26.383Z,5.41
2019-03-26T00:06:54.993Z,5.34
2019-03-26T00:09:23.879Z,5.29
2019-03-26T00:11:52.369Z,5.35
2019-03-26T00:14:21.015Z,5.25
2019-03-26T00:16:49.755Z,5.22
2019-03-26T00:19:18.393Z,5.18
2019-03-26T00:21:46.496Z,5.11
2019-03-26T00:24:15.356Z,5.07
2019-03-26T00:26:43.825Z,5.04
2019-03-26T00:29:12.193Z,4.84
2019-03-26T00:31:41.184Z,4.90
2019-03-26T00:34:19.152Z,4.78
2019-03-26T00:36:39.742Z,4.68
2019-03-26T00:39:08.380Z,4.76
2019-03-26T00:41:36.895Z,4.73
2019-03-26T00:44:05.522Z,4.53
2019-03-26T00:46:34.023Z,4.46
2019-03-26T00:49:02.129Z,4.46
2019-03-26T00:51:30.673Z,4.27
2019-03-26T00:53:59.263Z,4.35
2019-03-26T00:56:27.445Z,4.25
2019-03-26T00:58:55.965Z,4.25
2019-03-26T01:01:24.573Z,4.04
2019-03-26T01:03:54.957Z,4.02
2019-03-26T01:06:23.367Z,4.00
2019-03-26T01:08:51.855Z,4.00
2019-03-26T01:11:20.606Z,3.99
2019-03-26T01:13:49.440Z,3.88
2019-03-26T01:16:17.773Z,3.84
2019-03-26T01:18:46.570Z,3.83
2019-03-26T01:21:14.816Z,3.73
2019-03-26T01:23:43.807Z,3.63
2019-03-26T01:26:12.348Z,3.54
2019-03-26T01:28:44.067Z,3.74
2019-03-26T01:31:14.380Z,3.59
2019-03-26T01:33:43.142Z,3.58
2019-03-26T01:36:11.973Z,3.56
2019-03-26T01:38:40.551Z,3.48
2019-03-26T01:41:09.302Z,3.53
2019-03-26T01:43:37.935Z,3.53
2019-03-26T01:46:06.958Z,3.44
2019-03-26T01:48:35.946Z,3.37
2019-03-26T01:51:04.993Z,3.37
2019-03-26T01:53:34.196Z,3.32
2019-03-26T01:56:02.516Z,3.31
2019-03-26T01:58:30.626Z,3.19
2019-03-26T02:00:59.141Z,3.28
2019-03-26T02:03:28.080Z,3.19
2019-03-26T02:05:56.970Z,3.25
2019-03-26T02:08:26.381Z,3.26
2019-03-26T02:10:54.608Z,3.20
2019-03-26T02:13:23.233Z,3.10
2019-03-26T02:15:51.783Z,3.10
2019-03-26T02:18:20.504Z,3.05
2019-03-26T02:20:49.191Z,2.97
2019-03-26T02:23:17.569Z,2.88
2019-03-26T02:25:46.094Z,2.96
2019-03-26T02:28:14.342Z,3.01
2019-03-26T02:30:43.130Z,2.88
2019-03-26T02:33:11.142Z,2.78
2019-03-26T02:35:39.882Z,2.87
2019-03-26T02:38:08.388Z,2.83
2019-03-26T02:40:37.121Z,2.66
2019-03-26T02:43:05.330Z,2.64
2019-03-26T02:45:33.888Z,2.67
2019-03-26T02:48:02.997Z,2.63
2019-03-26T02:50:31.878Z,2.45
2019-03-26T02:53:00.979Z,2.50
2019-03-26T02:55:29.805Z,2.33
2019-03-26T02:57:58.315Z,2.34
2019-03-26T03:00:26.898Z,2.29
2019-03-26T03:02:55.901Z,2.29
2019-03-26T03:05:35.260Z,2.27
2019-03-26T03:07:54.578Z,2.26
2019-03-26T03:10:23.107Z,2.15
2019-03-26T03:12:51.735Z,2.11
2019-03-26T03:15:21.454Z,2.24
2019-03-26T03:17:50.343Z,1.95
2019-03-26T03:20:18.789Z,1.87
2019-03-26T03:22:47.520Z,1.94
2019-03-26T03:25:16.518Z,1.74
2019-03-26T03:27:44.966Z,1.85
2019-03-26T03:30:14.210Z,1.66
2019-03-26T03:32:43.120Z,1.71
2019-03-26T03:35:12.719Z,1.80
2019-03-26T03:37:41.406Z,1.73
2019-03-26T03:40:10.407Z,1.71
2019-03-26T03:42:39.318Z,1.60
2019-03-26T03:45:08.825Z,1.58
2019-03-26T03:47:38.531Z,1.46
2019-03-26T03:50:08.446Z,1.51
2019-03-26T03:52:42.768Z,1.47
2019-03-26T03:55:12.247Z,1.42
2019-03-26T03:57:41.166Z,1.41
2019-03-26T04:00:41.076Z,1.52
2019-03-26T04:03:10.630Z,1.44
2019-03-26T04:05:41.838Z,1.32
2019-03-26T04:08:11.013Z,1.25
2019-03-26T04:10:39.537Z,1.38
2019-03-26T04:13:08.109Z,1.28
2019-03-26T04:15:37.012Z,1.27
2019-03-26T04:18:05.671Z,1.26
2019-03-26T04:20:34.216Z,1.21
2019-03-26T04:23:03.545Z,1.07
2019-03-26T04:25:32.214Z,1.03
2019-03-26T04:28:01.083Z,0.91
2019-03-26T04:30:33.779Z,0.99
2019-03-26T04:33:02.306Z,0.97
2019-03-26T04:35:30.938Z,1.09
2019-03-26T04:37:59.687Z,1.01
2019-03-26T04:40:28.327Z,0.96
2019-03-26T04:42:57.324Z,0.87
2019-03-26T04:45:26.217Z,0.80
2019-03-26T04:47:54.995Z,0.77
2019-03-26T04:50:23.750Z,0.77
2019-03-26T04:52:52.414Z,0.82
2019-03-26T04:55:20.751Z,0.80
2019-03-26T04:57:50.102Z,0.87
2019-03-26T05:00:19.441Z,0.79
2019-03-26T05:02:47.917Z,0.73
2019-03-26T05:05:18.453Z,0.79
2019-03-26T05:07:47.283Z,0.74
2019-03-26T05:10:16.189Z,0.70
2019-03-26T05:12:45.153Z,0.75
2019-03-26T05:15:14.228Z,0.90
2019-03-26T05:17:42.438Z,0.72
2019-03-26T05:20:11.540Z,0.77
2019-03-26T05:22:40.258Z,0.75
2019-03-26T05:25:09.293Z,0.67
2019-03-26T05:27:45.270Z,0.74
2019-03-26T05:30:10.428Z,0.88
2019-03-26T05:32:38.804Z,0.87
2019-03-26T05:35:08.408Z,1.18
2019-03-26T05:37:37.116Z,1.16
2019-03-26T05:40:08.495Z,1.38
2019-03-26T05:42:37.956Z,1.31
2019-03-26T05:45:07.916Z,1.39
2019-03-26T05:47:36.821Z,1.48
2019-03-26T05:50:07.146Z,1.63
2019-03-26T05:52:36.159Z,1.68
2019-03-26T05:55:05.143Z,1.90
2019-03-26T05:57:33.922Z,2.01
2019-03-26T06:00:02.354Z,2.05
2019-03-26T06:02:31.365Z,2.16
2019-03-26T06:05:00.366Z,2.18
2019-03-26T06:07:31.271Z,2.33
2019-03-26T06:10:00.005Z,2.32
2019-03-26T06:12:28.466Z,2.53
2019-03-26T06:14:56.997Z,2.60
2019-03-26T06:17:26.405Z,2.72
2019-03-26T06:19:55.054Z,2.75
2019-03-26T06:22:23.224Z,2.91
2019-03-26T06:24:52.174Z,3.01
2019-03-26T06:27:20.659Z,3.15
2019-03-26T06:29:48.699Z,3.28
2019-03-26T06:32:16.946Z,3.38
2019-03-26T06:34:45.176Z,3.45
2019-03-26T06:37:18.073Z,3.55
2019-03-26T06:39:44.888Z,3.65
2019-03-26T06:42:13.829Z,3.87
2019-03-26T06:44:42.076Z,4.06
2019-03-26T06:47:10.363Z,3.95
2019-03-26T06:49:38.373Z,4.10
2019-03-26T06:52:07.264Z,4.32
2019-03-26T06:54:35.667Z,4.37
2019-03-26T06:57:03.928Z,4.57
2019-03-26T06:59:32.358Z,4.57
2019-03-26T07:02:01.745Z,4.66
2019-03-26T07:04:30.392Z,4.72
2019-03-26T07:06:59.401Z,4.78
2019-03-26T07:09:28.761Z,4.96
2019-03-26T07:11:56.997Z,5.13
2019-03-26T07:14:25.901Z,5.29
2019-03-26T07:16:54.896Z,5.29
2019-03-26T07:19:23.805Z,5.39
2019-03-26T07:21:53.103Z,5.38
2019-03-26T07:24:21.433Z,5.64
2019-03-26T07:26:49.449Z,5.64
2019-03-26T07:29:18.206Z,5.61
2019-03-26T07:31:46.844Z,5.67
2019-03-26T07:34:15.315Z,5.69
2019-03-26T07:36:43.401Z,5.76
2019-03-26T07:39:12.090Z,5.98
2019-03-26T07:41:40.066Z,6.14
2019-03-26T07:44:08.791Z,6.12
2019-03-26T07:46:37.139Z,6.15
2019-03-26T07:49:05.357Z,6.19
2019-03-26T07:51:34.591Z,6.38
2019-03-26T07:54:03.130Z,6.57
2019-03-26T07:56:31.850Z,6.42
2019-03-26T07:58:59.962Z,6.72
2019-03-26T08:01:28.873Z,7.02
2019-03-26T08:03:57.520Z,7.34
2019-03-26T08:06:25.844Z,7.71
2019-03-26T08:08:54.086Z,8.15
2019-03-26T08:11:22.549Z,8.07
2019-03-26T08:13:51.346Z,8.27
2019-03-26T08:16:20.736Z,8.30
2019-03-26T08:18:48.696Z,8.65
2019-03-26T08:21:17.410Z,8.94
2019-03-26T08:23:46.076Z,9.44
2019-03-26T08:26:14.558Z,9.87
2019-03-26T08:28:43.889Z,10.31
2019-03-26T08:31:12.089Z,10.65
2019-03-26T08:33:40.965Z,10.76
2019-03-26T08:36:09.207Z,11.14
2019-03-26T08:38:37.823Z,11.28
2019-03-26T08:41:06.043Z,11.46
2019-03-26T08:43:34.582Z,11.38
2019-03-26T08:46:02.814Z,11.26
2019-03-26T08:48:31.854Z,11.35
2019-03-26T08:51:00.924Z,11.21
2019-03-26T08:53:30.058Z,11.11
2019-03-26T08:55:58.607Z,10.94
2019-03-26T08:58:26.928Z,11.02
2019-03-26T09:00:55.411Z,10.79
2019-03-26T09:03:24.123Z,10.75
2019-03-26T09:05:52.592Z,10.79
2019-03-26T09:08:25.548Z,10.77
2019-03-26T09:10:52.203Z,10.92
2019-03-26T09:13:21.075Z,10.91
2019-03-26T09:15:50.426Z,10.95
2019-03-26T09:18:19.012Z,11.03
2019-03-26T09:20:47.858Z,11.08
2019-03-26T09:23:16.434Z,11.11
2019-03-26T09:25:44.546Z,11.01
2019-03-26T09:28:13.021Z,11.01
2019-03-26T09:30:42.058Z,10.96
2019-03-26T09:33:10.416Z,11.09
2019-03-26T09:35:38.681Z,11.14
2019-03-26T09:38:07.198Z,11.07
2019-03-26T09:40:36.258Z,11.04
2019-03-26T09:43:04.642Z,11.14
2019-03-26T09:45:32.861Z,10.99
2019-03-26T09:48:01.738Z,11.05
2019-03-26T09:50:36.624Z,11.11
2019-03-26T09:53:05.895Z,10.96
2019-03-26T09:55:34.475Z,11.15
2019-03-26T09:58:03.466Z,11.28
2019-03-26T10:00:31.947Z,11.28
2019-03-26T10:03:02.066Z,11.44
2019-03-26T10:05:30.755Z,11.47
2019-03-26T10:07:59.446Z,11.43
2019-03-26T10:10:27.689Z,11.68
2019-03-26T10:12:56.064Z,11.70
2019-03-26T10:15:24.547Z,11.94
2019-03-26T10:17:53.076Z,11.99
2019-03-26T10:20:21.487Z,12.23
2019-03-26T10:22:49.702Z,12.07
2019-03-26T10:25:18.386Z,12.09
2019-03-26T10:27:47.186Z,12.37
2019-03-26T10:30:19.147Z,12.46
2019-03-26T10:32:47.651Z,12.63
2019-03-26T10:35:16.418Z,12.84
2019-03-26T10:37:45.207Z,13.14
2019-03-26T10:40:28.951Z,13.09
2019-03-26T10:42:57.166Z,13.17
2019-03-26T10:45:26.026Z,13.43
2019-03-26T10:47:54.380Z,13.50
2019-03-26T10:50:23.092Z,13.55
2019-03-26T10:52:51.327Z,13.51
2019-03-26T10:55:19.539Z,13.35
2019-03-26T10:57:48.668Z,13.50
2019-03-26T11:00:18.729Z,13.56
2019-03-26T11:02:47.576Z,13.57
2019-03-26T11:05:16.167Z,13.38
2019-03-26T11:07:44.759Z,13.33
2019-03-26T11:10:13.719Z,13.22
2019-03-26T11:12:42.750Z,13.12
2019-03-26T11:15:11.669Z,13.24
2019-03-26T11:17:40.366Z,13.27
2019-03-26T11:20:09.836Z,13.12
2019-03-26T11:22:38.800Z,13.07
2019-03-26T11:25:08.435Z,13.10
2019-03-26T11:27:36.744Z,13.20
2019-03-26T11:30:06.761Z,13.37
2019-03-26T11:32:35.759Z,13.63
2019-03-26T11:35:04.824Z,13.97
2019-03-26T11:37:33.547Z,13.87
2019-03-26T11:40:02.536Z,14.02
2019-03-26T11:42:30.773Z,14.14
2019-03-26T11:44:59.600Z,14.19
2019-03-26T11:47:28.642Z,14.02
2019-03-26T11:49:56.987Z,14.02
2019-03-26T11:52:25.852Z,13.83
2019-03-26T11:54:56.721Z,13.96
2019-03-26T11:57:25.261Z,14.06
2019-03-26T11:59:54.022Z,14.09
2019-03-26T12:02:22.769Z,13.98
2019-03-26T12:04:52.017Z,14.02
2019-03-26T12:07:20.555Z,14.01
2019-03-26T12:09:48.671Z,14.02
2019-03-26T12:12:17.530Z,14.13
2019-03-26T12:14:45.722Z,14.13
2019-03-26T12:17:15.102Z,13.94
2019-03-26T12:19:43.864Z,14.15
2019-03-26T12:22:12.438Z,14.29
2019-03-26T12:24:41.033Z,14.36
2019-03-26T12:27:09.087Z,14.13
2019-03-26T12:29:37.469Z,14.20
2019-03-26T12:32:06.257Z,14.36
2019-03-26T12:34:35.412Z,14.28
2019-03-26T12:37:04.302Z,14.40
2019-03-26T12:39:32.942Z,14.38
2019-03-26T12:42:02.185Z,14.32
2019-03-26T12:44:30.401Z,14.41
2019-03-26T12:46:59.765Z,14.63
2019-03-26T12:49:28.450Z,14.79
2019-03-26T12:51:57.058Z,15.01
2019-03-26T12:54:25.608Z,14.98
2019-03-26T12:56:54.373Z,15.16
2019-03-26T12:59:22.626Z,15.16
2019-03-26T13:01:50.740Z,15.26
2019-03-26T13:04:19.183Z,15.41
2019-03-26T13:06:47.660Z,15.48
2019-03-26T13:09:16.052Z,15.55
2019-03-26T13:11:45.247Z,15.50
2019-03-26T13:14:14.142Z,15.47
2019-03-26T13:16:43.483Z,15.45
2019-03-26T13:19:12.750Z,15.58
2019-03-26T13:21:41.247Z,15.69
2019-03-26T13:24:11.455Z,15.60
2019-03-26T13:26:40.365Z,15.60
2019-03-26T13:29:09.255Z,15.47
2019-03-26T13:31:38.050Z,15.53
2019-03-26T13:34:06.731Z,15.37
2019-03-26T13:36:35.575Z,15.25
2019-03-26T13:39:07.967Z,15.30
2019-03-26T13:41:36.369Z,15.17
2019-03-26T13:44:05.393Z,15.19
2019-03-26T13:46:34.346Z,15.12
2019-03-26T13:49:02.967Z,15.30
2019-03-26T13:51:31.978Z,15.44
2019-03-26T13:54:00.539Z,15.51
2019-03-26T13:56:29.664Z,15.33
2019-03-26T13:58:58.214Z,15.54
2019-03-26T14:01:26.664Z,15.42
2019-03-26T14:03:55.446Z,15.44
2019-03-26T14:06:24.810Z,15.55
2019-03-26T14:08:53.175Z,15.51
2019-03-26T14:11:21.416Z,15.32
2019-03-26T14:13:50.045Z,15.46
2019-03-26T14:16:18.456Z,15.52
2019-03-26T14:18:46.968Z,15.52
2019-03-26T14:21:15.761Z,15.59
2019-03-26T14:23:44.088Z,15.36
2019-03-26T14:26:12.451Z,15.66
2019-03-26T14:28:41.317Z,15.60
2019-03-26T14:31:09.760Z,15.47
2019-03-26T14:33:38.950Z,15.46
2019-03-26T14:36:07.424Z,15.51
2019-03-26T14:38:36.391Z,15.36
2019-03-26T14:41:05.720Z,15.31
2019-03-26T14:43:34.488Z,15.43
2019-03-26T14:46:03.447Z,15.38
2019-03-26T14:48:32.794Z,15.00
2019-03-26T14:51:00.984Z,15.06
2019-03-26T14:53:29.870Z,14.86
2019-03-26T14:55:58.671Z,14.70
2019-03-26T14:58:29.245Z,14.73
2019-03-26T15:00:59.693Z,14.60
2019-03-26T15:03:29.387Z,14.27
2019-03-26T15:05:58.097Z,14.37
2019-03-26T15:08:26.439Z,14.39
2019-03-26T15:11:07.596Z,14.42
2019-03-26T15:13:32.607Z,14.41
2019-03-26T15:16:01.285Z,14.34
2019-03-26T15:18:33.078Z,14.45
2019-03-26T15:21:02.127Z,14.33
2019-03-26T15:23:30.585Z,14.56
2019-03-26T15:26:00.459Z,14.40
2019-03-26T15:28:30.169Z,14.48
2019-03-26T15:30:59.063Z,14.50
2019-03-26T15:33:27.255Z,14.39
2019-03-26T15:35:55.768Z,14.33
2019-03-26T15:38:24.063Z,14.44
2019-03-26T15:40:53.283Z,14.34
2019-03-26T15:43:22.269Z,14.26
2019-03-26T15:45:51.154Z,14.31
2019-03-26T15:48:19.925Z,14.29
2019-03-26T15:50:48.232Z,14.04
2019-03-26T15:53:17.644Z,14.01
2019-03-26T15:55:46.169Z,13.94
2019-03-26T15:58:14.707Z,13.94
2019-03-26T16:00:43.733Z,13.89
2019-03-26T16:03:12.749Z,13.84
2019-03-26T16:05:41.006Z,13.92
2019-03-26T16:08:12.417Z,13.96
2019-03-26T16:10:41.036Z,13.80
2019-03-26T16:13:09.631Z,13.81
2019-03-26T16:15:44.787Z,13.86
2019-03-26T16:18:09.471Z,13.83
2019-03-26T16:20:37.596Z,13.58
2019-03-26T16:23:06.293Z,13.60
2019-03-26T16:25:34.870Z,13.54
2019-03-26T16:28:03.460Z,13.33
2019-03-26T16:30:34.462Z,13.24
2019-03-26T16:33:02.205Z,13.05
2019-03-26T16:35:30.669Z,13.05
2019-03-26T16:37:59.146Z,12.97
2019-03-26T16:40:27.777Z,12.80
2019-03-26T16:42:56.428Z,12.80
2019-03-26T16:45:24.684Z,12.71
2019-03-26T16:47:53.073Z,12.65
2019-03-26T16:50:22.318Z,12.53
2019-03-26T16:52:51.116Z,12.35
2019-03-26T16:55:19.538Z,12.32
2019-03-26T16:57:48.081Z,12.24
2019-03-26T17:00:28.695Z,12.06
2019-03-26T17:02:58.235Z,12.01
2019-03-26T17:05:27.054Z,11.84
2019-03-26T17:07:55.625Z,11.85
2019-03-26T17:10:24.515Z,11.71
2019-03-26T17:12:59.598Z,11.67
2019-03-26T17:15:28.955Z,11.62
2019-03-26T17:17:57.692Z,11.37
2019-03-26T17:20:26.629Z,11.47
2019-03-26T17:22:55.031Z,11.31
2019-03-26T17:25:24.731Z,11.17
2019-03-26T17:27:53.078Z,11.10
2019-03-26T17:30:23.454Z,11.13
2019-03-26T17:32:52.072Z,11.08
2019-03-26T17:35:20.698Z,11.08
2019-03-26T17:37:59.694Z,11.04
2019-03-26T17:40:20.076Z,11.11
2019-03-26T17:42:49.056Z,10.97
2019-03-26T17:45:17.550Z,10.96
2019-03-26T17:47:45.658Z,10.84
2019-03-26T17:50:14.445Z,10.74
2019-03-26T17:52:43.003Z,10.68
2019-03-26T17:55:11.847Z,10.65
2019-03-26T17:57:40.526Z,10.66
2019-03-26T18:00:12.536Z,10.52
2019-03-26T18:02:40.852Z,10.60
2019-03-26T18:05:26.990Z,10.53
2019-03-26T18:07:56.255Z,10.39
2019-03-26T18:10:24.819Z,10.15
2019-03-26T18:12:53.023Z,10.29
2019-03-26T18:15:21.338Z,10.04
2019-03-26T18:17:49.915Z,10.04
2019-03-26T18:20:31.547Z,10.10
2019-03-26T18:22:48.689Z,10.03
2019-03-26T18:25:17.502Z,9.97
2019-03-26T18:27:45.899Z,10.00
2019-03-26T18:30:15.444Z,9.87
2019-03-26T18:32:43.939Z,9.84
2019-03-26T18:35:12.450Z,9.76
2019-03-26T18:37:41.729Z,9.75
2019-03-26T18:40:10.397Z,9.71
2019-03-26T18:42:44.395Z,9.66
2019-03-26T18:45:09.200Z,9.62
2019-03-26T18:47:38.004Z,9.61
2019-03-26T18:50:06.776Z,9.55
2019-03-26T18:52:35.017Z,9.54
2019-03-26T18:55:04.329Z,9.46
2019-03-26T18:57:32.816Z,9.45
2019-03-26T19:00:01.331Z,9.47
2019-03-26T19:02:29.955Z,9.43
2019-03-26T19:04:58.627Z,9.36
2019-03-26T19:07:27.879Z,9.31
2019-03-26T19:09:56.887Z,9.27
2019-03-26T19:12:25.272Z,9.22
2019-03-26T19:14:53.644Z,9.26
2019-03-26T19:17:22.823Z,9.38
2019-03-26T19:19:51.759Z,9.30
2019-03-26T19:22:20.662Z,9.39
2019-03-26T19:24:48.999Z,9.32
2019-03-26T19:27:17.785Z,9.38
2019-03-26T19:29:46.254Z,9.34
2019-03-26T19:32:14.475Z,9.24
2019-03-26T19:34:43.132Z,9.30
2019-03-26T19:37:11.499Z,9.25
2019-03-26T19:39:40.570Z,9.07
2019-03-26T19:42:08.572Z,9.21
2019-03-26T19:44:37.905Z,9.13
2019-03-26T19:47:07.205Z,9.13
2019-03-26T19:49:36.104Z,9.18
2019-03-26T19:52:04.342Z,9.18
2019-03-26T19:54:32.954Z,9.25
2019-03-26T19:57:01.476Z,9.13
2019-03-26T19:59:29.683Z,9.22
2019-03-26T20:01:57.915Z,9.08
2019-03-26T20:04:27.105Z,9.09
2019-03-26T20:06:55.869Z,9.05
2019-03-26T20:09:24.763Z,8.97
2019-03-26T20:11:53.753Z,9.00
2019-03-26T20:14:22.823Z,9.08
2019-03-26T20:16:51.376Z,9.00
2019-03-26T20:19:20.170Z,8.91
2019-03-26T20:21:49.952Z,8.90
2019-03-26T20:24:18.608Z,8.91
2019-03-26T20:26:47.649Z,8.87
2019-03-26T20:29:17.069Z,8.80
2019-03-26T20:31:45.768Z,8.79
2019-03-26T20:34:14.119Z,8.79
2019-03-26T20:36:43.030Z,8.71
2019-03-26T20:39:11.776Z,8.66
2019-03-26T20:41:39.883Z,8.78
2019-03-26T20:44:08.682Z,8.74
2019-03-26T20:46:36.919Z,8.72
2019-03-26T20:49:05.568Z,8.66
2019-03-26T20:51:34.015Z,8.65
2019-03-26T20:54:02.703Z,8.64
2019-03-26T20:56:31.639Z,8.61
2019-03-26T20:59:00.647Z,8.69
2019-03-26T21:01:29.275Z,8.55
2019-03-26T21:03:58.167Z,8.55
2019-03-26T21:06:26.869Z,8.59
2019-03-26T21:08:56.220Z,8.51
2019-03-26T21:11:25.463Z,8.54
2019-03-26T21:13:54.002Z,8.54
2019-03-26T21:16:22.546Z,8.46
2019-03-26T21:18:51.054Z,8.40
2019-03-26T21:21:19.295Z,8.47
2019-03-26T21:23:48.008Z,8.51
2019-03-26T21:26:16.209Z,8.52
2019-03-26T21:28:44.903Z,8.51
2019-03-26T21:31:13.821Z,8.50
2019-03-26T21:33:41.868Z,8.55
2019-03-26T21:36:10.679Z,8.43
2019-03-26T21:38:39.590Z,8.44
2019-03-26T21:41:08.282Z,8.51
2019-03-26T21:43:37.158Z,8.38
2019-03-26T21:46:05.972Z,8.41
2019-03-26T21:48:34.660Z,8.38
2019-03-26T21:51:03.366Z,8.47
2019-03-26T21:53:31.534Z,8.40
2019-03-26T21:56:06.212Z,8.43
2019-03-26T21:58:30.374Z,8.35
2019-03-26T22:00:59.673Z,8.38
2019-03-26T22:03:28.001Z,8.37
2019-03-26T22:05:56.613Z,8.31
2019-03-26T22:08:24.954Z,8.32
2019-03-26T22:10:53.313Z,8.26
2019-03-26T22:13:22.497Z,8.27
2019-03-26T22:15:51.039Z,8.15
2019-03-26T22:18:19.328Z,8.13
2019-03-26T22:20:47.921Z,8.24
2019-03-26T22:23:16.734Z,8.30
2019-03-26T22:25:45.691Z,8.20
2019-03-26T22:28:14.223Z,8.12
2019-03-26T22:30:42.826Z,8.06
2019-03-26T22:33:10.921Z,8.08
2019-03-26T22:35:39.251Z,8.02
2019-03-26T22:38:08.071Z,7.99
2019-03-26T22:40:37.606Z,8.00
2019-03-26T22:43:06.082Z,7.97
2019-03-26T22:45:34.790Z,8.07
2019-03-26T22:48:03.237Z,8.08
2019-03-26T22:50:32.340Z,8.07
2019-03-26T22:53:01.067Z,8.06
2019-03-26T22:55:29.780Z,8.04
2019-03-26T22:57:58.012Z,8.06
2019-03-26T23:00:28.718Z,7.90
2019-03-26T23:02:57.312Z,7.91
2019-03-26T23:05:25.815Z,8.07
2019-03-26T23:07:54.033Z,7.98
2019-03-26T23:10:22.551Z,7.99
2019-03-26T23:12:51.375Z,7.98
2019-03-26T23:15:23.050Z,7.86
2019-03-26T23:17:51.996Z,7.80
2019-03-26T23:20:20.939Z,7.75
2019-03-26T23:22:49.827Z,7.85
2019-03-26T23:25:18.270Z,7.68
2019-03-26T23:27:47.079Z,7.74
2019-03-26T23:30:16.468Z,7.75
2019-03-26T23:32:45.023Z,7.83
2019-03-26T23:35:13.330Z,7.63
2019-03-26T23:37:42.344Z,7.68
2019-03-26T23:40:12.913Z,7.63
2019-03-26T23:42:41.403Z,7.53
2019-03-26T23:45:11.018Z,7.57
2019-03-26T23:47:39.689Z,7.66
2019-03-26T23:50:09.103Z,7.72
2019-03-26T23:52:37.657Z,7.59
2019-03-26T23:55:07.480Z,7.60
2019-03-26T23:57:37.605Z,7.55
